Flight Track Log - Related Links

Times and Time Zones

All times are in EDT time to prevent confusion due to time zone crossing. See the VH-LSI flight status page for this flight to view local times or setup timezone preferences in your user account.

Time Position Orientation Groundspeed Altitude Reporting Facility
EDT Latitude Longitude Course Direction KTS MPH feet Rate Location/Type
Mon 12:48:39 AM -35.2915 149.1943 15° North 71 82 2,200  Level Aus ATC (RADAR)
Mon 12:49:49 AM -35.2690 149.2019 15° North 80 92 2,700 404 Climbing Aus ATC (RADAR)
Mon 12:50:23 AM -35.2603 149.2120 44° Northeast 75 86 2,900 364 Climbing Aus ATC (RADAR)
Mon 12:51:28 AM -35.2469 149.2322 51° Northeast 70 81 3,300 360 Climbing Aus ATC (RADAR)
Mon 12:52:03 AM -35.2401 149.2441 55° Northeast 74 85 3,500 375 Climbing Aus ATC (RADAR)
Mon 12:52:48 AM -35.2309 149.2587 52° Northeast 74 85 3,800 375 Climbing Aus ATC (RADAR)
Mon 12:53:23 AM -35.2226 149.2732 55° Northeast 87 100 4,000 257 Climbing Aus ATC (RADAR)
Mon 12:53:58 AM -35.2144 149.2860 52° Northeast 83 96 4,100 257 Climbing Aus ATC (RADAR)
Mon 12:54:33 AM -35.2064 149.2991 53° Northeast 82 94 4,300 333 Climbing Aus ATC (RADAR)
Mon 12:55:28 AM -35.1928 149.3206 52° Northeast 82 94 4,600 273 Climbing Aus ATC (RADAR)
Mon 12:56:23 AM -35.1787 149.3423 52° Northeast 85 98 4,800 267 Climbing Aus ATC (RADAR)
Mon 12:56:58 AM -35.1696 149.3565 52° Northeast 89 102 5,000 300 Climbing Aus ATC (RADAR)
Mon 12:57:43 AM -35.1556 149.3735 45° Northeast 99 114 5,200 171 Climbing Aus ATC (RADAR)
Mon 12:58:43 AM -35.1294 149.3796 11° North 99 114 5,300 114 Climbing Aus ATC (RADAR)
Mon 12:59:28 AM -35.1103 149.3847 12° North 95 109 5,400 225 Climbing Aus ATC (RADAR)
Mon 01:00:03 AM -35.0953 149.3883 11° North 95 109 5,600 343 Climbing Aus ATC (RADAR)
Mon 01:04:07 AM -35.0033 149.4003 360° North 5,500 -22 Descending Aus ATC (Calculated)
Mon 01:04:38 AM -35.0033 149.4003 48° Northeast 5,500  Level Aus ATC (Calculated)
Mon 01:06:00 AM -34.9821 149.4292 48° Northeast  Level FlightAware Approximate
Mon 01:07:00 AM -34.9666 149.4502 48° Northeast  Level FlightAware Approximate
Mon 01:07:44 AM -34.8775 149.4128 52° Northeast 5,500  Level Aus ATC (Calculated)
Mon 01:09:00 AM -34.8593 149.4409 52° Northeast  Level FlightAware Approximate
Mon 01:10:00 AM -34.8450 149.4632 52° Northeast  Level FlightAware Approximate
Mon 01:11:00 AM -34.8306 149.4854 52° Northeast  Level FlightAware Approximate
Mon 01:12:00 AM -34.8162 149.5076 52° Northeast  Level FlightAware Approximate
Mon 01:13:00 AM -34.8019 149.5298 52° Northeast  Level FlightAware Approximate
Mon 01:14:00 AM -34.7875 149.5520 52° Northeast  Level FlightAware Approximate
Mon 01:15:00 AM -34.7731 149.5741 52° Northeast  Level FlightAware Approximate
Mon 01:16:00 AM -34.7587 149.5963 52° Northeast  Level FlightAware Approximate
Mon 01:17:00 AM -34.7444 149.6185 52° Northeast  Level FlightAware Approximate
Mon 01:18:00 AM -34.7300 149.6407 52° Northeast  Level FlightAware Approximate
Mon 01:19:00 AM -34.7156 149.6628 52° Northeast  Level FlightAware Approximate
Mon 01:19:33 AM -34.5000 149.4500 66° East 5,500  Level Aus ATC (Calculated)
Mon 01:21:00 AM -34.4864 149.4873 66° East  Level FlightAware Approximate
Mon 01:21:24 AM -34.4716 149.5277 360° North  Level Aus ATC (Calculated)
Mon 01:21:58 AM -34.4716 149.5277 66° East  Level Aus ATC (Calculated)
Mon 01:23:00 AM -34.4619 149.5543 66° East  Level FlightAware Approximate
Mon 01:24:00 AM -34.4525 149.5800 66° East  Level FlightAware Approximate
Mon 01:25:00 AM -34.4431 149.6058 66° East  Level FlightAware Approximate
Mon 01:26:00 AM -34.4337 149.6315 66° East  Level FlightAware Approximate
Mon 01:27:00 AM -34.4242 149.6572 66° East  Level FlightAware Approximate
Mon 01:28:00 AM -34.4148 149.6829 66° East  Level FlightAware Approximate
Mon 01:29:00 AM -34.4053 149.7086 66° East  Level FlightAware Approximate
Mon 01:30:00 AM -34.3959 149.7343 66° East  Level FlightAware Approximate
Mon 01:31:00 AM -34.3864 149.7600 66° East  Level FlightAware Approximate
Mon 01:32:00 AM -34.3770 149.7856 66° East  Level FlightAware Approximate
Mon 01:33:00 AM -34.3675 149.8113 66° East  Level FlightAware Approximate
Mon 01:34:00 AM -34.3581 149.8370 66° East  Level FlightAware Approximate
Mon 01:35:00 AM -34.3486 149.8627 66° East  Level FlightAware Approximate
Mon 01:36:00 AM -34.3391 149.8883 66° East  Level FlightAware Approximate
Mon 01:37:00 AM -34.3296 149.9140 66° East  Level FlightAware Approximate
Mon 01:38:00 AM -34.3201 149.9396 66° East  Level FlightAware Approximate
Mon 01:39:00 AM -34.3106 149.9653 66° East  Level FlightAware Approximate
Mon 01:40:00 AM -34.3011 149.9909 66° East  Level FlightAware Approximate
Mon 01:41:00 AM -34.2916 150.0165 66° East  Level FlightAware Approximate
Mon 01:42:00 AM -34.2821 150.0421 66° East  Level FlightAware Approximate
Mon 01:43:00 AM -34.2726 150.0677 66° East  Level FlightAware Approximate
Mon 01:44:00 AM -34.2631 150.0934 66° East  Level FlightAware Approximate
Mon 01:45:00 AM -34.2536 150.1190 66° East  Level FlightAware Approximate
Mon 01:46:00 AM -34.2440 150.1446 66° East  Level FlightAware Approximate
Mon 01:47:00 AM -34.2345 150.1702 66° East  Level FlightAware Approximate
Mon 01:48:00 AM -34.2249 150.1958 66° East  Level FlightAware Approximate
Mon 01:48:17 AM -34.2033 150.2538 149° Southeast  Level Aus ATC (Calculated)
Mon 01:48:17 AM -34.2033 150.2538 66° East  Level Aus ATC (Calculated)
Mon 01:50:00 AM -34.1868 150.2977 66° East  Level FlightAware Approximate
Mon 01:50:17 AM -34.1627 150.3623 180° South  Level Aus ATC (Calculated)
Mon 01:51:34 AM -34.1627 150.3623 66° East  Level Aus ATC (Calculated)
Mon 01:53:00 AM -34.1490 150.3989 66° East  Level FlightAware Approximate
Mon 01:54:00 AM -34.1394 150.4244 66° East  Level FlightAware Approximate
Mon 01:55:00 AM -34.1298 150.4500 66° East  Level FlightAware Approximate
Mon 01:56:00 AM -34.1202 150.4755 66° East  Level FlightAware Approximate
Mon 01:57:00 AM -34.1105 150.5010 66° East  Level FlightAware Approximate
Mon 01:58:00 AM -34.1009 150.5265 66° East  Level FlightAware Approximate
Mon 01:59:00 AM -34.0913 150.5520 66° East  Level FlightAware Approximate
Mon 02:00:00 AM -34.0817 150.5775 66° East  Level FlightAware Approximate
Mon 02:01:00 AM -34.0720 150.6030 65° Northeast  Level FlightAware Approximate
Mon 02:02:00 AM -34.0624 150.6285 65° Northeast  Level FlightAware Approximate
Mon 02:03:00 AM -34.0528 150.6540 65° Northeast  Level FlightAware Approximate
Mon 02:03:19 AM -34.0402 150.6872 162° South  Level Aus ATC (Calculated)
Mon 02:05:00 AM -34.0403 150.6872 North  Level Estimated
Mon 02:06:00 AM -34.0403 150.6872 348° North  Level Estimated
Mon 02:07:00 AM -34.0403 150.6872 348° North  Level Estimated
Mon 02:08:00 AM -34.0403 150.6872 348° North  Level Estimated
Mon 02:09:00 AM -34.0403 150.6872 348° North  Level Estimated
Mon 02:10:00 AM -34.0403 150.6872 348° North  Level Estimated

Login

Don't have an account? Register now (free) for customized features, flight alerts, and more!